createdAt,value
2023-05-16T00:01:14.957Z,21.03
2023-05-16T00:04:00.254Z,21.04
2023-05-16T00:06:46.125Z,21.03
2023-05-16T00:09:31.364Z,21.02
2023-05-16T00:12:17.845Z,21.03
2023-05-16T00:15:05.377Z,21.01
2023-05-16T00:17:51.924Z,21.01
2023-05-16T00:20:37.632Z,21.02
2023-05-16T00:23:23.366Z,21.02
2023-05-16T00:26:08.831Z,21.02
2023-05-16T00:28:54.253Z,21.01
2023-05-16T00:31:39.503Z,21.00
2023-05-16T00:34:24.834Z,21.01
2023-05-16T00:37:11.184Z,21.02
2023-05-16T00:39:56.508Z,21.00
2023-05-16T00:42:41.904Z,20.98
2023-05-16T00:45:27.268Z,20.98
2023-05-16T00:48:15.104Z,20.98
2023-05-16T00:51:01.924Z,20.97
2023-05-16T00:53:47.315Z,20.98
2023-05-16T00:56:33.990Z,20.98
2023-05-16T00:59:20.407Z,20.99
2023-05-16T01:02:06.012Z,20.97
2023-05-16T01:04:51.908Z,20.98
2023-05-16T01:07:37.446Z,20.97
2023-05-16T01:10:23.601Z,20.96
2023-05-16T01:13:18.377Z,20.96
2023-05-16T01:16:31.614Z,20.96
2023-05-16T01:19:47.344Z,20.97
2023-05-16T01:22:47.757Z,20.95
2023-05-16T01:25:56.690Z,20.95
2023-05-16T01:28:44.350Z,20.96
2023-05-16T01:31:30.471Z,20.95
2023-05-16T01:34:16.153Z,20.95
2023-05-16T01:37:19.807Z,20.94
2023-05-16T01:40:12.871Z,20.95
2023-05-16T01:43:03.092Z,20.94
2023-05-16T01:45:55.297Z,20.94
2023-05-16T01:49:13.285Z,20.93
2023-05-16T01:52:02.346Z,20.93
2023-05-16T01:54:48.730Z,20.92
2023-05-16T01:57:35.566Z,20.90
2023-05-16T02:00:21.536Z,20.91
2023-05-16T02:03:07.235Z,20.90
2023-05-16T02:05:52.502Z,20.88
2023-05-16T02:08:37.891Z,20.89
2023-05-16T02:11:23.302Z,20.89
2023-05-16T02:14:08.726Z,20.90
2023-05-16T02:16:54.933Z,20.89
2023-05-16T02:19:40.632Z,20.89
2023-05-16T02:22:26.093Z,20.89
2023-05-16T02:25:12.476Z,20.88
2023-05-16T02:27:59.970Z,20.86
2023-05-16T02:30:45.509Z,20.85
2023-05-16T02:33:31.074Z,20.87
2023-05-16T02:36:16.628Z,20.84
2023-05-16T02:39:04.160Z,20.85
2023-05-16T02:41:49.498Z,20.84
2023-05-16T02:44:35.013Z,20.83
2023-05-16T02:47:20.443Z,20.83
2023-05-16T02:50:06.356Z,20.83
2023-05-16T02:52:53.618Z,20.83
2023-05-16T02:55:39.079Z,20.82
2023-05-16T02:58:26.199Z,20.80
2023-05-16T03:01:11.664Z,20.77
2023-05-16T03:03:57.477Z,20.77
2023-05-16T03:06:43.268Z,20.77
2023-05-16T03:09:28.883Z,20.79
2023-05-16T03:12:15.584Z,20.75
2023-05-16T03:15:01.975Z,20.77
2023-05-16T03:17:48.100Z,20.76
2023-05-16T03:20:33.485Z,20.76
2023-05-16T03:23:22.409Z,20.75
2023-05-16T03:26:07.994Z,20.76
2023-05-16T03:28:53.567Z,20.76
2023-05-16T03:31:39.299Z,20.75
2023-05-16T03:34:24.925Z,20.75
2023-05-16T03:37:11.184Z,20.74
2023-05-16T03:39:56.920Z,20.76
2023-05-16T03:42:42.258Z,20.75
2023-05-16T03:45:27.784Z,20.74
2023-05-16T03:48:15.130Z,20.73
2023-05-16T03:51:01.652Z,20.73
2023-05-16T03:53:47.115Z,20.73
2023-05-16T03:56:32.325Z,20.71
2023-05-16T03:59:18.261Z,20.71
2023-05-16T04:02:04.099Z,20.71
2023-05-16T04:04:49.712Z,20.70
2023-05-16T04:07:35.125Z,20.73
2023-05-16T04:10:20.848Z,20.71
2023-05-16T04:13:07.246Z,20.74
2023-05-16T04:15:52.767Z,20.78
2023-05-16T04:18:38.472Z,20.83
2023-05-16T04:21:24.024Z,20.86
2023-05-16T04:24:09.351Z,20.91
2023-05-16T04:26:55.627Z,20.95
2023-05-16T04:29:41.145Z,20.99
2023-05-16T04:32:28.830Z,21.03
2023-05-16T04:35:14.750Z,21.08
2023-05-16T04:38:00.281Z,21.09
2023-05-16T04:40:45.709Z,21.13
2023-05-16T04:43:31.247Z,21.17
2023-05-16T04:46:16.627Z,21.18
2023-05-16T04:49:02.126Z,21.19
2023-05-16T04:51:48.838Z,21.19
2023-05-16T04:54:34.604Z,21.20
2023-05-16T04:57:20.258Z,21.22
2023-05-16T05:00:12.172Z,21.22
2023-05-16T05:02:57.702Z,21.20
2023-05-16T05:05:43.115Z,21.22
2023-05-16T05:08:28.318Z,21.21
2023-05-16T05:11:13.555Z,21.18
2023-05-16T05:13:58.827Z,21.15
2023-05-16T05:16:44.125Z,21.14
2023-05-16T05:19:29.576Z,21.11
2023-05-16T05:22:15.269Z,21.09
2023-05-16T05:25:00.962Z,21.04
2023-05-16T05:27:46.405Z,21.00
2023-05-16T05:30:32.261Z,20.98
2023-05-16T05:33:20.644Z,20.95
2023-05-16T05:36:06.344Z,20.92
2023-05-16T05:38:51.922Z,20.86
2023-05-16T05:41:38.046Z,20.84
2023-05-16T05:44:23.538Z,20.81
2023-05-16T05:47:08.945Z,20.77
2023-05-16T05:49:54.283Z,20.75
2023-05-16T05:52:39.958Z,20.71
2023-05-16T05:55:25.920Z,20.67
2023-05-16T05:58:11.587Z,20.65
2023-05-16T06:00:56.887Z,20.64
2023-05-16T06:03:42.907Z,20.64
2023-05-16T06:06:28.335Z,20.62
2023-05-16T06:09:15.129Z,20.60
2023-05-16T06:12:00.327Z,20.57
2023-05-16T06:14:45.700Z,20.55
2023-05-16T06:17:31.192Z,20.53
2023-05-16T06:20:16.725Z,20.52
2023-05-16T06:23:02.632Z,20.51
2023-05-16T06:25:48.045Z,20.49
2023-05-16T06:28:33.358Z,20.46
2023-05-16T06:31:18.700Z,20.45
2023-05-16T06:34:04.342Z,20.44
2023-05-16T06:36:49.880Z,20.39
2023-05-16T06:39:34.988Z,20.34
2023-05-16T06:42:20.707Z,20.33
2023-05-16T06:45:08.987Z,20.30
2023-05-16T06:47:57.417Z,20.24
2023-05-16T06:50:42.851Z,20.22
2023-05-16T06:53:28.791Z,20.19
2023-05-16T06:56:14.005Z,20.19
2023-05-16T06:59:01.727Z,20.14
2023-05-16T07:01:47.238Z,20.12
2023-05-16T07:04:32.976Z,20.11
2023-05-16T07:07:18.358Z,20.08
2023-05-16T07:10:04.322Z,20.06
2023-05-16T07:12:49.941Z,20.03
2023-05-16T07:15:35.379Z,19.99
2023-05-16T07:18:24.124Z,19.99
2023-05-16T07:21:09.442Z,19.96
2023-05-16T07:23:54.956Z,19.92
2023-05-16T07:26:40.412Z,19.88
2023-05-16T07:29:27.120Z,19.86
2023-05-16T07:32:12.569Z,19.81
2023-05-16T07:34:57.803Z,19.82
2023-05-16T07:37:43.623Z,19.76
2023-05-16T07:40:29.560Z,19.72
2023-05-16T07:43:15.000Z,19.73
2023-05-16T07:46:01.829Z,19.71
2023-05-16T07:48:47.643Z,19.70
2023-05-16T07:51:33.484Z,19.67
2023-05-16T07:54:18.750Z,19.65
2023-05-16T07:57:04.259Z,19.63
2023-05-16T07:59:52.436Z,19.63
2023-05-16T08:02:38.557Z,19.58
2023-05-16T08:05:24.533Z,19.55
2023-05-16T08:08:09.985Z,19.57
2023-05-16T08:10:55.460Z,19.58
2023-05-16T08:13:40.882Z,19.53
2023-05-16T08:16:26.257Z,19.53
2023-05-16T08:19:12.168Z,19.50
2023-05-16T08:21:57.387Z,19.49
2023-05-16T08:24:42.765Z,19.52
2023-05-16T08:27:28.921Z,19.51
2023-05-16T08:30:14.972Z,19.48
2023-05-16T08:33:04.812Z,19.46
2023-05-16T08:35:52.988Z,19.44
2023-05-16T08:38:38.241Z,19.43
2023-05-16T08:41:23.965Z,19.41
2023-05-16T08:44:12.430Z,19.43
2023-05-16T08:47:02.071Z,19.42
2023-05-16T08:49:52.419Z,19.39
2023-05-16T08:52:40.190Z,19.40
2023-05-16T08:55:27.384Z,19.38
2023-05-16T08:58:13.508Z,19.38
2023-05-16T09:00:58.816Z,19.37
2023-05-16T09:03:44.621Z,19.35
2023-05-16T09:06:30.298Z,19.37
2023-05-16T09:09:15.840Z,19.35
2023-05-16T09:12:01.353Z,19.32
2023-05-16T09:14:47.470Z,19.31
2023-05-16T09:17:42.551Z,19.32
2023-05-16T09:20:28.776Z,19.33
2023-05-16T09:23:14.521Z,19.33
2023-05-16T09:25:59.834Z,19.34
2023-05-16T09:28:45.377Z,19.35
2023-05-16T09:31:36.887Z,19.31
2023-05-16T09:34:22.874Z,19.31
2023-05-16T09:37:10.299Z,19.29
2023-05-16T09:39:55.852Z,19.27
2023-05-16T09:42:44.444Z,19.27
2023-05-16T09:45:30.821Z,19.25
2023-05-16T09:48:18.122Z,19.23
2023-05-16T09:51:06.236Z,19.25
2023-05-16T09:53:51.976Z,19.26
2023-05-16T09:56:50.282Z,19.25
2023-05-16T09:59:37.256Z,19.28
2023-05-16T10:02:23.327Z,19.27
2023-05-16T10:05:08.855Z,19.29
2023-05-16T10:07:56.790Z,19.27
2023-05-16T10:10:42.715Z,19.27
2023-05-16T10:13:33.218Z,19.26
2023-05-16T10:16:21.864Z,19.27
2023-05-16T10:19:07.453Z,19.27
2023-05-16T10:22:00.997Z,19.30
2023-05-16T10:25:05.344Z,19.26
2023-05-16T10:27:54.229Z,19.26
2023-05-16T10:30:44.093Z,19.27
2023-05-16T10:33:29.863Z,19.30
2023-05-16T10:36:16.483Z,19.29
2023-05-16T10:39:02.619Z,19.30
2023-05-16T10:41:48.413Z,19.31
2023-05-16T10:44:34.239Z,19.29
2023-05-16T10:47:20.348Z,19.31
2023-05-16T10:50:06.494Z,19.34
2023-05-16T10:52:52.986Z,19.34
2023-05-16T10:56:06.231Z,19.34
2023-05-16T10:58:53.881Z,19.36
2023-05-16T11:01:41.415Z,19.36
2023-05-16T11:04:45.992Z,19.38
2023-05-16T11:07:36.901Z,19.37
2023-05-16T11:10:22.465Z,19.37
2023-05-16T11:13:08.518Z,19.36
2023-05-16T11:16:29.353Z,19.37
2023-05-16T11:19:28.075Z,19.39
2023-05-16T11:22:19.587Z,19.39
2023-05-16T11:25:07.397Z,19.41
2023-05-16T11:27:52.656Z,19.42
2023-05-16T11:30:43.077Z,19.43
2023-05-16T11:33:34.372Z,19.43
2023-05-16T11:36:20.034Z,19.45
2023-05-16T11:39:10.232Z,19.44
2023-05-16T11:41:56.202Z,19.42
2023-05-16T11:44:42.165Z,19.44
2023-05-16T11:47:29.907Z,19.46
2023-05-16T11:50:22.980Z,19.49
2023-05-16T11:53:10.132Z,19.52
2023-05-16T11:55:58.136Z,19.53
2023-05-16T11:58:45.702Z,19.57
2023-05-16T12:01:39.225Z,19.60
2023-05-16T12:04:25.081Z,19.64
2023-05-16T12:07:10.600Z,19.65
2023-05-16T12:09:56.038Z,19.67
2023-05-16T12:12:44.986Z,19.69
2023-05-16T12:15:31.090Z,19.73
2023-05-16T12:18:17.373Z,19.73
2023-05-16T12:21:02.851Z,19.72
2023-05-16T12:23:48.207Z,19.72
2023-05-16T12:26:33.928Z,19.71
2023-05-16T12:29:21.693Z,19.70
2023-05-16T12:32:08.969Z,19.68
2023-05-16T12:34:54.835Z,19.67
2023-05-16T12:37:40.337Z,19.65
2023-05-16T12:40:33.171Z,19.64
2023-05-16T12:43:21.810Z,19.62
2023-05-16T12:46:14.909Z,19.63
2023-05-16T12:49:06.501Z,19.60
2023-05-16T12:52:01.085Z,19.59
2023-05-16T12:54:48.397Z,19.58
2023-05-16T12:57:35.068Z,19.57
2023-05-16T13:00:21.738Z,19.58
2023-05-16T13:03:10.130Z,19.58
2023-05-16T13:05:55.419Z,19.59
2023-05-16T13:08:40.651Z,19.61
2023-05-16T13:11:26.393Z,19.61
2023-05-16T13:14:11.697Z,19.63
2023-05-16T13:16:56.886Z,19.63
2023-05-16T13:19:42.338Z,19.64
2023-05-16T13:22:27.667Z,19.64
2023-05-16T13:25:13.106Z,19.63
2023-05-16T13:27:58.404Z,19.64
2023-05-16T13:30:43.602Z,19.62
2023-05-16T13:33:29.215Z,19.63
2023-05-16T13:36:14.937Z,19.65
2023-05-16T13:39:00.261Z,19.65
2023-05-16T13:41:47.375Z,19.65
2023-05-16T13:44:38.137Z,19.64
2023-05-16T13:47:26.192Z,19.65
2023-05-16T13:50:12.270Z,19.65
2023-05-16T13:52:58.012Z,19.66
2023-05-16T13:55:43.507Z,19.67
2023-05-16T13:58:28.874Z,19.68
2023-05-16T14:01:14.808Z,19.67
2023-05-16T14:04:00.358Z,19.68
2023-05-16T14:06:45.564Z,19.68
2023-05-16T14:09:31.686Z,19.67
2023-05-16T14:12:17.325Z,19.68
2023-05-16T14:15:02.593Z,19.68
2023-05-16T14:17:48.122Z,19.71
2023-05-16T14:20:33.686Z,19.71
2023-05-16T14:23:18.880Z,19.70
2023-05-16T14:26:06.984Z,19.71
2023-05-16T14:28:53.269Z,19.73
2023-05-16T14:31:38.581Z,19.72
2023-05-16T14:34:24.416Z,19.73
2023-05-16T14:37:11.883Z,19.73
2023-05-16T14:39:57.764Z,19.73
2023-05-16T14:42:43.333Z,19.74
2023-05-16T14:45:29.359Z,19.75
2023-05-16T14:48:14.953Z,19.76
2023-05-16T14:51:00.807Z,19.76
2023-05-16T14:53:47.312Z,19.76
2023-05-16T14:56:32.761Z,19.76
2023-05-16T14:59:17.865Z,19.77
2023-05-16T15:02:04.076Z,19.78
2023-05-16T15:04:49.810Z,19.77
2023-05-16T15:07:35.517Z,19.77
2023-05-16T15:10:20.998Z,19.78
2023-05-16T15:13:06.479Z,19.78
2023-05-16T15:15:52.437Z,19.78
2023-05-16T15:18:38.106Z,19.78
2023-05-16T15:21:23.962Z,19.76
2023-05-16T15:24:09.529Z,19.76
2023-05-16T15:26:55.538Z,19.75
2023-05-16T15:29:41.240Z,19.76
2023-05-16T15:32:26.982Z,19.76
2023-05-16T15:35:12.501Z,19.76
2023-05-16T15:37:59.750Z,19.75
2023-05-16T15:40:45.235Z,19.74
2023-05-16T15:43:30.549Z,19.74
2023-05-16T15:46:16.204Z,19.75
2023-05-16T15:49:01.638Z,19.75
2023-05-16T15:51:47.747Z,19.77
2023-05-16T15:54:33.657Z,19.77
2023-05-16T15:57:19.296Z,19.77
2023-05-16T16:00:05.790Z,19.81
2023-05-16T16:02:57.595Z,19.83
2023-05-16T16:05:43.067Z,19.83
2023-05-16T16:08:28.280Z,19.84
2023-05-16T16:11:13.504Z,19.86
2023-05-16T16:13:58.975Z,19.87
2023-05-16T16:16:45.469Z,19.89
2023-05-16T16:19:32.507Z,19.92
2023-05-16T16:22:17.692Z,19.92
2023-05-16T16:25:03.047Z,19.92
2023-05-16T16:27:48.359Z,19.93
2023-05-16T16:30:34.094Z,19.94
2023-05-16T16:33:19.697Z,19.97
2023-05-16T16:36:06.135Z,19.99
2023-05-16T16:38:51.487Z,20.02
2023-05-16T16:41:36.761Z,20.02
2023-05-16T16:44:22.314Z,20.05
2023-05-16T16:47:08.570Z,20.11
2023-05-16T16:50:23.403Z,20.16
2023-05-16T16:53:11.503Z,20.18
2023-05-16T16:55:57.100Z,20.24
2023-05-16T16:58:42.398Z,20.27
2023-05-16T17:01:29.863Z,20.32
2023-05-16T17:04:15.756Z,20.40
2023-05-16T17:07:01.839Z,20.42
2023-05-16T17:09:47.792Z,20.44
2023-05-16T17:12:34.550Z,20.48
2023-05-16T17:15:20.916Z,20.49
2023-05-16T17:18:09.311Z,20.54
2023-05-16T17:20:56.006Z,20.58
2023-05-16T17:23:44.359Z,20.61
2023-05-16T17:26:35.086Z,20.66
2023-05-16T17:29:21.817Z,20.68
2023-05-16T17:32:07.446Z,20.69
2023-05-16T17:34:54.406Z,20.73
2023-05-16T17:37:39.828Z,20.75
2023-05-16T17:40:25.196Z,20.77
2023-05-16T17:43:10.491Z,20.82
2023-05-16T17:45:56.044Z,20.84
2023-05-16T17:48:42.381Z,20.85
2023-05-16T17:51:28.334Z,20.87
2023-05-16T17:54:17.290Z,20.87
2023-05-16T17:57:02.978Z,20.89
2023-05-16T17:59:48.385Z,20.88
2023-05-16T18:02:36.644Z,20.92
2023-05-16T18:05:24.360Z,20.91
2023-05-16T18:08:09.719Z,20.94
2023-05-16T18:10:55.582Z,20.95
2023-05-16T18:13:41.000Z,20.98
2023-05-16T18:16:26.685Z,20.97
2023-05-16T18:20:09.548Z,20.97
2023-05-16T18:22:54.860Z,20.96
2023-05-16T18:25:40.160Z,20.96
2023-05-16T18:28:25.568Z,20.96
2023-05-16T18:31:11.744Z,20.96
2023-05-16T18:33:57.731Z,20.98
2023-05-16T18:36:43.373Z,20.98
2023-05-16T18:39:28.644Z,20.98
2023-05-16T18:42:15.898Z,20.97
2023-05-16T18:45:01.503Z,20.96
2023-05-16T18:47:47.286Z,20.96
2023-05-16T18:50:32.894Z,20.96
2023-05-16T18:53:18.324Z,20.96
2023-05-16T18:56:04.919Z,20.95
2023-05-16T18:58:50.806Z,20.94
2023-05-16T19:01:37.000Z,20.95
2023-05-16T19:04:22.574Z,20.93
2023-05-16T19:07:09.390Z,20.92
2023-05-16T19:09:54.967Z,20.90
2023-05-16T19:12:40.678Z,20.89
2023-05-16T19:15:26.388Z,20.88
2023-05-16T19:18:12.031Z,20.87
2023-05-16T19:20:57.529Z,20.85
2023-05-16T19:23:42.887Z,20.84
2023-05-16T19:26:28.560Z,20.81
2023-05-16T19:29:13.914Z,20.81
2023-05-16T19:31:59.311Z,20.79
2023-05-16T19:34:45.011Z,20.76
2023-05-16T19:37:30.922Z,20.73
2023-05-16T19:40:17.380Z,20.67
2023-05-16T19:43:03.278Z,20.66
2023-05-16T19:45:48.882Z,20.64
2023-05-16T19:48:35.297Z,20.60
2023-05-16T19:51:33.217Z,20.61
2023-05-16T19:54:26.285Z,20.62
2023-05-16T19:57:11.837Z,20.59
2023-05-16T19:59:56.974Z,20.66
2023-05-16T20:02:43.280Z,20.65
2023-05-16T20:05:29.300Z,20.68
2023-05-16T20:08:15.051Z,20.68
2023-05-16T20:11:00.365Z,20.71
2023-05-16T20:13:45.678Z,20.71
2023-05-16T20:16:31.061Z,20.74
2023-05-16T20:22:04.965Z,20.76
2023-05-16T20:24:50.327Z,20.77
2023-05-16T20:27:35.753Z,20.77
2023-05-16T20:30:21.124Z,20.79
2023-05-16T20:33:06.630Z,20.79
2023-05-16T20:35:52.624Z,20.76
2023-05-16T20:38:38.921Z,20.71
2023-05-16T20:41:26.845Z,20.70
2023-05-16T20:44:12.095Z,20.67
2023-05-16T20:46:57.255Z,20.68
2023-05-16T20:49:42.583Z,20.64
2023-05-16T20:52:28.013Z,20.62
2023-05-16T20:55:13.467Z,20.59
2023-05-16T20:58:00.352Z,20.56
2023-05-16T21:00:48.138Z,20.53
2023-05-16T21:03:33.422Z,20.52
2023-05-16T21:06:18.884Z,20.49
2023-05-16T21:09:04.881Z,20.47
2023-05-16T21:11:50.226Z,20.44
2023-05-16T21:14:35.512Z,20.41
2023-05-16T21:17:21.411Z,20.40
2023-05-16T21:20:08.310Z,20.35
2023-05-16T21:22:53.862Z,20.34
2023-05-16T21:25:41.135Z,20.32
2023-05-16T21:28:26.577Z,20.28
2023-05-16T21:31:11.751Z,20.27
2023-05-16T21:33:57.038Z,20.27
2023-05-16T21:36:42.278Z,20.24
2023-05-16T21:39:27.672Z,20.23
2023-05-16T21:42:13.745Z,20.22
2023-05-16T21:44:59.220Z,20.19
2023-05-16T21:47:45.576Z,20.18
2023-05-16T21:50:31.259Z,20.16
2023-05-16T21:53:17.635Z,20.14
2023-05-16T21:56:03.312Z,20.12
2023-05-16T21:58:48.525Z,20.12
2023-05-16T22:01:33.969Z,20.09
2023-05-16T22:04:19.309Z,20.10
2023-05-16T22:07:05.255Z,20.07
2023-05-16T22:09:53.590Z,20.06
2023-05-16T22:12:39.189Z,20.04
2023-05-16T22:15:24.458Z,20.03
2023-05-16T22:18:10.330Z,20.02
2023-05-16T22:20:55.920Z,20.00
2023-05-16T22:23:41.547Z,20.01
2023-05-16T22:26:26.777Z,19.99
2023-05-16T22:29:11.995Z,19.98
2023-05-16T22:31:57.349Z,19.96
2023-05-16T22:34:42.564Z,19.96
2023-05-16T22:37:28.055Z,19.94
2023-05-16T22:40:13.201Z,19.93
2023-05-16T22:42:58.671Z,19.92
2023-05-16T22:45:44.037Z,19.91
2023-05-16T22:48:29.562Z,19.91
2023-05-16T22:51:15.522Z,19.90
2023-05-16T22:54:00.890Z,19.89
2023-05-16T22:56:46.126Z,19.88
2023-05-16T22:59:31.390Z,19.88
2023-05-16T23:02:16.714Z,19.88
2023-05-16T23:05:02.673Z,19.86
2023-05-16T23:07:48.062Z,19.85
2023-05-16T23:10:33.350Z,19.84
2023-05-16T23:13:18.673Z,19.84
2023-05-16T23:16:04.117Z,19.83
2023-05-16T23:18:49.621Z,19.83
2023-05-16T23:21:35.256Z,19.83
2023-05-16T23:24:20.707Z,19.81
2023-05-16T23:27:06.109Z,19.80
2023-05-16T23:29:51.448Z,19.79
2023-05-16T23:32:36.906Z,19.78
2023-05-16T23:35:22.242Z,19.77
2023-05-16T23:38:07.677Z,19.76
2023-05-16T23:40:53.021Z,19.76
2023-05-16T23:43:38.286Z,19.76
2023-05-16T23:46:23.449Z,19.75
2023-05-16T23:49:08.849Z,19.75
2023-05-16T23:51:57.855Z,19.73
2023-05-16T23:54:45.454Z,19.73
2023-05-16T23:57:30.664Z,19.72
